Time;durP1;ratioP1;P1;durP2;ratioP2;P2;SDS_P1;SDS_P2;PMS_P1;PMS_P2;Temp;Humidity;BMP_temperature;BMP_pressure;BME280_temperature;BME280_humidity;BME280_pressure;Samples;Min_cycle;Max_cycle;Signal;HPM_P1;HPM_P2
2022/10/15 00:00:19;;;;;;;0.00;0.00;;;15.80;99.90;;;;;;5034779;28;20518;-74
2022/10/15 00:02:47;;;;;;;0.00;0.00;;;15.80;99.90;;;;;;5034894;28;20466;-74
2022/10/15 00:05:15;;;;;;;0.00;0.00;;;15.80;99.90;;;;;;5034961;28;20477;-73
2022/10/15 00:07:42;;;;;;;0.00;0.00;;;15.80;99.90;;;;;;5034671;28;20449;-74
2022/10/15 00:10:10;;;;;;;0.00;0.00;;;15.80;99.90;;;;;;5035086;28;20465;-74
2022/10/15 00:12:38;;;;;;;0.00;0.00;;;15.80;99.90;;;;;;5034774;28;20441;-74
2022/10/15 00:15:10;;;;;;;0.00;0.00;;;15.80;99.90;;;;;;5034605;28;20856;-74
2022/10/15 00:17:38;;;;;;;0.00;0.00;;;15.80;99.90;;;;;;5034231;28;20448;-73
2022/10/15 00:20:09;;;;;;;0.00;0.00;;;15.90;99.90;;;;;;5034011;28;20575;-74
2022/10/15 00:22:37;;;;;;;0.00;0.00;;;15.80;99.90;;;;;;5034468;28;20440;-74
2022/10/15 00:25:06;;;;;;;0.00;0.00;;;15.80;99.90;;;;;;5034397;28;20535;-74
2022/10/15 00:27:34;;;;;;;0.00;0.00;;;15.80;99.90;;;;;;5034346;28;20840;-74
2022/10/15 00:30:02;;;;;;;0.00;0.00;;;15.80;99.90;;;;;;5034499;28;20462;-74
2022/10/15 00:32:31;;;;;;;0.00;0.00;;;15.80;99.90;;;;;;5035080;28;20444;-74
2022/10/15 00:34:59;;;;;;;0.00;0.00;;;15.80;99.90;;;;;;5036034;28;20803;-73
2022/10/15 00:37:27;;;;;;;0.00;0.00;;;15.90;99.90;;;;;;5034718;28;20452;-73
2022/10/15 00:39:55;;;;;;;0.00;0.00;;;15.90;99.90;;;;;;5034323;28;20468;-74
2022/10/15 00:42:23;;;;;;;0.00;0.00;;;15.80;99.90;;;;;;5034619;28;20457;-73
2022/10/15 00:44:55;;;;;;;0.00;0.00;;;15.90;99.90;;;;;;5034265;28;20542;-73
2022/10/15 00:47:37;;;;;;;0.00;0.00;;;15.90;99.90;;;;;;5034634;28;20437;-72
2022/10/15 00:50:08;;;;;;;0.00;0.00;;;15.90;99.90;;;;;;5034378;28;20847;-75
2022/10/15 00:52:43;;;;;;;0.00;0.00;;;15.90;99.90;;;;;;5034287;28;20438;-74
2022/10/15 00:55:14;;;;;;;0.00;0.00;;;15.90;99.90;;;;;;5034739;28;20448;-74
2022/10/15 00:57:44;;;;;;;0.00;0.00;;;15.90;99.90;;;;;;5035396;28;20846;-74
2022/10/15 01:00:15;;;;;;;0.00;0.00;;;15.90;99.90;;;;;;5035565;28;20467;-74
2022/10/15 01:02:45;;;;;;;0.00;0.00;;;15.80;99.90;;;;;;5035020;28;20433;-75
2022/10/15 01:05:14;;;;;;;0.00;0.00;;;15.70;99.90;;;;;;5034841;28;20518;-74
2022/10/15 01:07:42;;;;;;;0.00;0.00;;;15.70;99.90;;;;;;5034759;28;20488;-74
2022/10/15 01:10:11;;;;;;;0.00;0.00;;;15.70;99.90;;;;;;5034603;28;20886;-74
2022/10/15 01:13:02;;;;;;;0.00;0.00;;;15.70;99.90;;;;;;5035952;28;20460;-75
2022/10/15 01:15:39;;;;;;;0.00;0.00;;;15.80;99.90;;;;;;5035059;28;20440;-74
2022/10/15 01:18:14;;;;;;;0.00;0.00;;;15.80;99.90;;;;;;5034010;28;20870;-74
2022/10/15 01:20:55;;;;;;;0.00;0.00;;;15.70;99.90;;;;;;5033082;28;20476;-74
2022/10/15 01:23:58;;;;;;;0.00;0.00;;;15.60;99.90;;;;;;5034111;28;20425;-74
2022/10/15 01:26:51;;;;;;;0.00;0.00;;;15.60;99.90;;;;;;5033466;28;20436;-74
2022/10/15 01:29:29;;;;;;;0.00;0.00;;;15.50;99.90;;;;;;5033354;28;20442;-74
2022/10/15 01:32:03;;;;;;;0.00;0.00;;;15.30;99.90;;;;;;5033207;28;20476;-74
2022/10/15 01:34:38;;;;;;;0.00;0.00;;;15.30;99.90;;;;;;5033325;28;20444;-74
2022/10/15 01:37:11;;;;;;;0.00;0.00;;;15.30;99.90;;;;;;5033311;28;20910;-74
2022/10/15 01:39:41;;;;;;;0.00;0.00;;;15.30;99.90;;;;;;5033095;28;20445;-74
2022/10/15 01:42:17;;;;;;;0.00;0.00;;;15.40;99.90;;;;;;5033405;28;20445;-75
2022/10/15 01:44:49;;;;;;;0.00;0.00;;;15.40;99.90;;;;;;5033287;28;20473;-74
2022/10/15 01:47:23;;;;;;;0.00;0.00;;;15.40;99.90;;;;;;5033035;28;20441;-74
2022/10/15 01:49:53;;;;;;;0.00;0.00;;;15.50;99.90;;;;;;5032347;28;20992;-74
2022/10/15 01:52:26;;;;;;;0.00;0.00;;;15.50;99.90;;;;;;5033253;28;20916;-74
2022/10/15 01:54:55;;;;;;;0.00;0.00;;;15.40;99.90;;;;;;5033116;28;20491;-74
2022/10/15 01:57:27;;;;;;;0.00;0.00;;;15.50;99.90;;;;;;5032983;28;20445;-74
2022/10/15 01:59:55;;;;;;;0.00;0.00;;;15.40;99.90;;;;;;5032786;28;20457;-74
2022/10/15 02:02:24;;;;;;;0.00;0.00;;;15.40;99.90;;;;;;5032946;28;20457;-74
2022/10/15 02:04:52;;;;;;;0.00;0.00;;;15.40;99.90;;;;;;5032890;28;20568;-74
2022/10/15 02:07:29;;;;;;;0.00;0.00;;;15.40;99.90;;;;;;5032799;28;20937;-74
2022/10/15 02:10:00;;;;;;;0.00;0.00;;;15.40;99.90;;;;;;5032783;28;20465;-74
2022/10/15 02:12:37;;;;;;;0.00;0.00;;;15.40;99.90;;;;;;5032790;28;20433;-74
2022/10/15 02:21:41;;;;;;;0.00;0.00;;;15.40;99.90;;;;;;5039746;28;20448;-88
2022/10/15 02:24:15;;;;;;;0.00;0.00;;;15.20;99.90;;;;;;5040411;28;20448;-88
2022/10/15 02:26:47;;;;;;;0.00;0.00;;;15.00;99.90;;;;;;5038574;28;20444;-89
2022/10/15 02:29:22;;;;;;;0.00;0.00;;;15.00;99.90;;;;;;5055336;28;20459;-88
2022/10/15 02:31:52;;;;;;;0.00;0.00;;;14.90;99.90;;;;;;5036533;28;20533;-89
2022/10/15 02:34:27;;;;;;;0.00;0.00;;;14.90;99.90;;;;;;5036357;28;20441;-88
2022/10/15 02:37:04;;;;;;;0.00;0.00;;;15.00;99.90;;;;;;5036425;28;20536;-89
2022/10/15 02:39:40;;;;;;;0.00;0.00;;;15.00;99.90;;;;;;5035951;28;20460;-89
2022/10/15 02:42:11;;;;;;;0.00;0.00;;;15.00;99.90;;;;;;5035925;28;20503;-89
2022/10/15 02:44:40;;;;;;;0.00;0.00;;;15.10;99.90;;;;;;5035674;28;20802;-89
2022/10/15 02:47:08;;;;;;;0.00;0.00;;;15.00;99.90;;;;;;5035835;28;20453;-88
2022/10/15 02:49:45;;;;;;;0.00;0.00;;;15.00;99.90;;;;;;5036120;28;20544;-89
2022/10/15 02:52:14;;;;;;;0.00;0.00;;;15.10;99.90;;;;;;5036180;28;20936;-88
2022/10/15 02:54:44;;;;;;;0.00;0.00;;;15.10;99.90;;;;;;5036026;28;20453;-89
2022/10/15 02:57:30;;;;;;;0.00;0.00;;;15.10;99.90;;;;;;5038843;28;20457;-88
2022/10/15 03:00:19;;;;;;;0.00;0.00;;;15.10;99.90;;;;;;5039872;28;20523;-89
2022/10/15 03:03:13;;;;;;;0.00;0.00;;;15.00;99.90;;;;;;5042765;28;20483;-89
2022/10/15 03:05:52;;;;;;;0.00;0.00;;;15.10;99.90;;;;;;5042206;28;20547;-88
2022/10/15 03:08:22;;;;;;;0.00;0.00;;;15.10;99.90;;;;;;5042936;28;20476;-88
2022/10/15 03:10:54;;;;;;;0.00;0.00;;;15.10;99.90;;;;;;5042861;28;20469;-88
2022/10/15 03:13:41;;;;;;;0.00;0.00;;;15.00;99.90;;;;;;5042328;28;20436;-88
2022/10/15 03:16:21;;;;;;;0.00;0.00;;;15.00;99.90;;;;;;5043484;28;20456;-89
2022/10/15 03:18:51;;;;;;;0.00;0.00;;;15.00;99.90;;;;;;5043807;28;20463;-89
2022/10/15 03:21:30;;;;;;;0.00;0.00;;;15.00;99.90;;;;;;5043608;28;20480;-89
2022/10/15 03:24:06;;;;;;;0.00;0.00;;;15.00;99.90;;;;;;5043543;28;20445;-89
2022/10/15 03:26:42;;;;;;;0.00;0.00;;;15.00;99.90;;;;;;5045008;28;20481;-89
2022/10/15 03:29:14;;;;;;;0.00;0.00;;;14.90;99.90;;;;;;5056523;28;20441;-88
2022/10/15 03:31:59;;;;;;;0.00;0.00;;;14.80;99.90;;;;;;5045742;28;20959;-89
2022/10/15 03:34:35;;;;;;;0.00;0.00;;;14.70;99.90;;;;;;5040958;28;20449;-89
2022/10/15 03:37:08;;;;;;;0.00;0.00;;;14.60;99.90;;;;;;5041042;28;20445;-88
2022/10/15 03:39:43;;;;;;;0.00;0.00;;;14.50;99.90;;;;;;5038963;28;20485;-88
2022/10/15 03:42:11;;;;;;;0.00;0.00;;;14.40;99.90;;;;;;5038263;28;20540;-89
2022/10/15 03:44:40;;;;;;;0.00;0.00;;;14.40;99.90;;;;;;5044080;28;20449;-88
2022/10/15 03:47:08;;;;;;;0.00;0.00;;;14.30;99.90;;;;;;5042276;28;20897;-87
2022/10/15 03:49:37;;;;;;;0.00;0.00;;;14.20;99.90;;;;;;5043940;28;20501;-87
2022/10/15 03:52:11;;;;;;;0.00;0.00;;;14.10;99.90;;;;;;5043836;28;20449;-87
2022/10/15 03:54:41;;;;;;;0.00;0.00;;;14.00;99.90;;;;;;5043940;28;20448;-87
2022/10/15 03:57:15;;;;;;;0.00;0.00;;;13.90;99.90;;;;;;5043815;28;20443;-87
2022/10/15 03:59:51;;;;;;;0.00;0.00;;;13.90;99.90;;;;;;5043310;28;20586;-87
2022/10/15 04:02:19;;;;;;;0.00;0.00;;;13.90;99.90;;;;;;5043261;28;20812;-87
2022/10/15 04:04:54;;;;;;;0.00;0.00;;;13.80;99.90;;;;;;5043330;28;20822;-87
2022/10/15 04:07:22;;;;;;;0.00;0.00;;;13.70;99.90;;;;;;5042408;28;21006;-86
2022/10/15 04:09:52;;;;;;;0.00;0.00;;;13.70;99.90;;;;;;5042462;28;20473;-87
2022/10/15 04:12:20;;;;;;;0.00;0.00;;;13.60;99.90;;;;;;5043219;28;20554;-87
2022/10/15 04:14:49;;;;;;;0.00;0.00;;;13.60;99.90;;;;;;5042813;28;20456;-87
2022/10/15 04:17:17;;;;;;;0.00;0.00;;;13.70;99.90;;;;;;5042739;28;20445;-87
2022/10/15 04:19:46;;;;;;;0.00;0.00;;;13.70;99.90;;;;;;5042251;28;20489;-87
2022/10/15 04:22:15;;;;;;;0.00;0.00;;;13.80;99.90;;;;;;5042199;28;20445;-87
2022/10/15 04:24:43;;;;;;;0.00;0.00;;;13.90;99.90;;;;;;5043271;28;20454;-88
2022/10/15 04:27:13;;;;;;;0.00;0.00;;;13.90;99.90;;;;;;5042723;28;20484;-87
2022/10/15 04:29:50;;;;;;;0.00;0.00;;;14.00;99.90;;;;;;5043466;28;20529;-87
2022/10/15 04:32:18;;;;;;;0.00;0.00;;;14.00;99.90;;;;;;5052833;28;20429;-87
2022/10/15 04:34:47;;;;;;;0.00;0.00;;;14.10;99.90;;;;;;5049514;28;20484;-87
2022/10/15 04:37:15;;;;;;;0.00;0.00;;;14.10;99.90;;;;;;5043017;28;20476;-88
2022/10/15 04:39:43;;;;;;;0.00;0.00;;;14.20;99.90;;;;;;5042314;28;20472;-88
2022/10/15 04:42:13;;;;;;;0.00;0.00;;;14.30;99.90;;;;;;5042591;28;20463;-88
2022/10/15 04:44:41;;;;;;;0.00;0.00;;;14.30;99.90;;;;;;5041798;28;20464;-88
2022/10/15 04:47:09;;;;;;;0.00;0.00;;;14.40;99.90;;;;;;5041886;28;20469;-88
2022/10/15 04:49:37;;;;;;;0.00;0.00;;;14.40;99.90;;;;;;5041223;28;20480;-88
2022/10/15 04:52:06;;;;;;;0.00;0.00;;;14.40;99.90;;;;;;5042348;28;20855;-88
2022/10/15 04:54:34;;;;;;;0.00;0.00;;;14.40;99.90;;;;;;5042067;28;20449;-88
2022/10/15 04:57:09;;;;;;;0.00;0.00;;;14.30;99.90;;;;;;5041716;28;20440;-87
2022/10/15 04:59:40;;;;;;;0.00;0.00;;;14.30;99.90;;;;;;5041809;28;20475;-87
2022/10/15 05:02:08;;;;;;;0.00;0.00;;;14.40;99.90;;;;;;5042545;28;20499;-87
2022/10/15 05:04:38;;;;;;;0.00;0.00;;;14.40;99.90;;;;;;5042433;28;20847;-87
2022/10/15 05:07:08;;;;;;;0.00;0.00;;;14.40;99.90;;;;;;5040132;28;20500;-89
2022/10/15 05:09:38;;;;;;;0.00;0.00;;;14.40;99.90;;;;;;5039819;28;20469;-87
2022/10/15 05:12:13;;;;;;;0.00;0.00;;;14.50;99.90;;;;;;5042062;28;20484;-87
2022/10/15 05:14:43;;;;;;;0.00;0.00;;;14.50;99.90;;;;;;5041745;28;20457;-87
2022/10/15 05:17:11;;;;;;;0.00;0.00;;;14.60;99.90;;;;;;5040609;28;20476;-89
2022/10/15 05:19:39;;;;;;;0.00;0.00;;;14.60;99.90;;;;;;5039640;28;21022;-89
2022/10/15 05:22:08;;;;;;;0.00;0.00;;;14.60;99.90;;;;;;5041722;28;20515;-87
2022/10/15 05:24:39;;;;;;;0.00;0.00;;;14.60;99.90;;;;;;5040921;28;20468;-87
2022/10/15 05:27:09;;;;;;;0.00;0.00;;;14.60;99.90;;;;;;5041561;28;20487;-87
2022/10/15 05:29:38;;;;;;;0.00;0.00;;;14.60;99.90;;;;;;5042141;28;20461;-87
2022/10/15 05:32:08;;;;;;;0.00;0.00;;;14.50;99.90;;;;;;5042620;28;20477;-87
2022/10/15 05:34:39;;;;;;;0.00;0.00;;;14.50;99.90;;;;;;5046360;28;20456;-87
2022/10/15 05:37:08;;;;;;;0.00;0.00;;;14.50;99.90;;;;;;5056118;28;20480;-88
2022/10/15 05:39:37;;;;;;;0.00;0.00;;;14.50;99.90;;;;;;5041542;28;20473;-87
2022/10/15 05:42:05;;;;;;;0.00;0.00;;;14.40;99.90;;;;;;5041308;28;20457;-88
2022/10/15 05:44:35;;;;;;;0.00;0.00;;;14.40;99.90;;;;;;5041499;28;20540;-88
2022/10/15 05:47:05;;;;;;;0.00;0.00;;;14.40;99.90;;;;;;5040612;28;20545;-88
2022/10/15 05:49:35;;;;;;;0.00;0.00;;;14.40;99.90;;;;;;5041894;28;21000;-88
2022/10/15 05:52:05;;;;;;;0.00;0.00;;;14.40;99.90;;;;;;5041126;28;20814;-89
2022/10/15 05:54:35;;;;;;;0.00;0.00;;;14.40;99.90;;;;;;5041000;28;20444;-87
2022/10/15 05:57:03;;;;;;;0.00;0.00;;;14.50;99.90;;;;;;5037965;28;20438;-89
2022/10/15 05:59:32;;;;;;;0.00;0.00;;;14.50;99.90;;;;;;5035925;28;20457;-90
2022/10/15 06:02:02;;;;;;;0.00;0.00;;;14.50;99.90;;;;;;5037026;28;20456;-88
2022/10/15 06:04:31;;;;;;;0.00;0.00;;;14.50;99.90;;;;;;5038620;28;20445;-89
2022/10/15 06:07:06;;;;;;;0.00;0.00;;;14.60;99.90;;;;;;5038396;28;20579;-89
2022/10/15 06:09:36;;;;;;;0.00;0.00;;;14.50;99.90;;;;;;5037652;28;20484;-89
2022/10/15 06:12:04;;;;;;;0.00;0.00;;;14.50;99.90;;;;;;5038597;28;20480;-89
2022/10/15 06:14:35;;;;;;;0.00;0.00;;;14.50;99.90;;;;;;5040895;28;20516;-89
2022/10/15 06:17:06;;;;;;;0.00;0.00;;;14.50;99.90;;;;;;5038497;28;20453;-89
2022/10/15 06:19:38;;;;;;;0.00;0.00;;;14.50;99.90;;;;;;5037580;28;20576;-90
2022/10/15 06:22:07;;;;;;;0.00;0.00;;;14.50;99.90;;;;;;5038708;28;20532;-88
2022/10/15 06:24:40;;;;;;;0.00;0.00;;;14.50;99.90;;;;;;5038638;28;20457;-89
2022/10/15 06:27:12;;;;;;;0.00;0.00;;;14.50;99.90;;;;;;5038103;28;20894;-89
2022/10/15 06:29:43;;;;;;;0.00;0.00;;;14.50;99.90;;;;;;5039852;28;20473;-89
2022/10/15 06:32:21;;;;;;;0.00;0.00;;;14.50;99.90;;;;;;5039780;28;20460;-89
2022/10/15 06:34:56;;;;;;;0.00;0.00;;;14.60;99.90;;;;;;5041748;28;20463;-89
2022/10/15 06:37:29;;;;;;;0.00;0.00;;;14.60;99.90;;;;;;5044838;28;20923;-89
2022/10/15 06:40:01;;;;;;;0.00;0.00;;;14.60;99.90;;;;;;5057168;28;20472;-89
2022/10/15 06:42:29;;;;;;;0.00;0.00;;;14.60;99.90;;;;;;5043840;28;20499;-89
2022/10/15 06:44:59;;;;;;;0.00;0.00;;;14.60;99.90;;;;;;5042231;28;20493;-89
2022/10/15 06:47:51;;;;;;;0.00;0.00;;;14.70;99.90;;;;;;5043056;28;20536;-89
2022/10/15 06:50:21;;;;;;;0.00;0.00;;;14.70;99.90;;;;;;5043235;28;20884;-89
2022/10/15 06:52:50;;;;;;;0.00;0.00;;;14.70;99.90;;;;;;5042757;28;20453;-89
2022/10/15 06:55:19;;;;;;;0.00;0.00;;;14.70;99.90;;;;;;5042578;28;20448;-89
2022/10/15 06:57:49;;;;;;;0.00;0.00;;;14.70;99.90;;;;;;5044057;28;20441;-89
2022/10/15 07:00:22;;;;;;;0.00;0.00;;;14.70;99.90;;;;;;5056035;28;20834;-89
2022/10/15 07:03:18;;;;;;;0.00;0.00;;;14.70;99.90;;;;;;5059673;28;20425;-88
2022/10/15 07:05:58;;;;;;;0.00;0.00;;;14.80;99.90;;;;;;5058036;28;20468;-89
2022/10/15 07:08:41;;;;;;;0.00;0.00;;;14.80;99.90;;;;;;5042826;28;20477;-87
2022/10/15 07:11:24;;;;;;;0.00;0.00;;;14.80;99.90;;;;;;5033542;28;20536;-88
2022/10/15 07:13:56;;;;;;;0.00;0.00;;;14.90;99.90;;;;;;5042082;28;20487;-89
2022/10/15 07:16:27;;;;;;;0.00;0.00;;;14.90;99.90;;;;;;5042187;28;20518;-89
2022/10/15 07:19:05;;;;;;;0.00;0.00;;;14.90;99.90;;;;;;5040831;28;20951;-88
2022/10/15 07:22:35;;;;;;;0.00;0.00;;;15.00;99.90;;;;;;5041630;28;20519;-89
2022/10/15 07:25:08;;;;;;;0.00;0.00;;;15.00;99.90;;;;;;5040818;28;20457;-89
2022/10/15 07:27:37;;;;;;;0.00;0.00;;;15.00;99.90;;;;;;5043878;28;20545;-89
2022/10/15 07:30:10;;;;;;;0.00;0.00;;;15.10;99.90;;;;;;5043644;28;20477;-89
2022/10/15 07:32:48;;;;;;;0.00;0.00;;;15.00;99.90;;;;;;5045161;28;20492;-89
2022/10/15 07:35:37;;;;;;;0.00;0.00;;;15.10;99.90;;;;;;5045698;28;20512;-89
2022/10/15 07:38:08;;;;;;;0.00;0.00;;;15.00;99.90;;;;;;5044363;28;20452;-89
2022/10/15 07:40:51;;;;;;;0.00;0.00;;;15.10;99.90;;;;;;5044423;28;20473;-89
2022/10/15 07:46:22;;;;;;;0.00;0.00;;;15.10;99.90;;;;;;5041446;28;20528;-89
2022/10/15 07:49:26;;;;;;;0.00;0.00;;;15.10;99.90;;;;;;5040046;28;21005;-89
2022/10/15 07:52:36;;;;;;;;;;;;;;;;;;;;;
2022/10/15 07:55:26;;;;;;;0.00;0.00;;;15.20;99.90;;;;;;5040118;28;20528;-89
2022/10/15 07:58:33;;;;;;;0.00;0.00;;;15.20;99.90;;;;;;5040979;28;20438;-89
2022/10/15 08:01:20;;;;;;;0.00;0.00;;;15.30;99.90;;;;;;5044036;28;20475;-89
2022/10/15 08:04:09;;;;;;;0.00;0.00;;;15.30;99.90;;;;;;5040663;28;20499;-89
2022/10/15 08:10:57;;;;;;;0.00;0.00;;;15.30;99.90;;;;;;4958734;29;20475;-88
2022/10/15 08:17:11;;;;;;;0.00;0.00;;;15.20;99.90;;;;;;4980858;28;20448;-88
2022/10/15 08:20:20;;;;;;;0.00;0.00;;;15.20;99.90;;;;;;5035863;28;20837;-90
2022/10/15 08:47:06;;;;;;;0.00;0.00;;;15.00;99.90;;;;;;4759372;22;20455;-74
2022/10/15 08:49:43;;;;;;;0.00;0.00;;;15.00;99.90;;;;;;5033351;28;20476;-74
2022/10/15 08:52:20;;;;;;;0.00;0.00;;;15.10;99.90;;;;;;5014847;28;20449;-75
2022/10/15 08:54:48;;;;;;;0.00;0.00;;;15.10;99.90;;;;;;5014570;28;20542;-74
2022/10/15 08:57:26;;;;;;;0.00;0.00;;;15.10;99.90;;;;;;5014465;28;20442;-75
2022/10/15 09:00:00;;;;;;;0.00;0.00;;;15.30;99.90;;;;;;5014043;28;20537;-75
2022/10/15 09:02:34;;;;;;;0.00;0.00;;;15.30;99.90;;;;;;5014327;28;20810;-74
2022/10/15 09:05:11;;;;;;;0.00;0.00;;;15.30;99.90;;;;;;5013898;28;20540;-75
2022/10/15 09:07:46;;;;;;;0.00;0.00;;;15.30;99.90;;;;;;5013257;28;20861;-76
2022/10/15 09:10:32;;;;;;;0.00;0.00;;;15.30;99.90;;;;;;5014059;28;20476;-76
2022/10/15 09:13:03;;;;;;;0.00;0.00;;;15.30;99.90;;;;;;5014804;28;20469;-76
2022/10/15 09:15:36;;;;;;;0.00;0.00;;;15.40;99.90;;;;;;5013891;28;20500;-75
2022/10/15 09:18:11;;;;;;;0.00;0.00;;;15.40;99.90;;;;;;5013138;28;20438;-76
2022/10/15 09:20:39;;;;;;;0.00;0.00;;;15.40;99.90;;;;;;5014024;28;20450;-76
2022/10/15 09:23:14;;;;;;;0.00;0.00;;;15.40;99.90;;;;;;5013551;28;20449;-76
2022/10/15 09:25:49;;;;;;;0.00;0.00;;;15.20;99.90;;;;;;5013454;28;20426;-75
2022/10/15 09:28:25;;;;;;;0.00;0.00;;;15.20;99.90;;;;;;5013366;28;20505;-75
2022/10/15 09:30:56;;;;;;;0.00;0.00;;;15.20;99.90;;;;;;5013936;28;20969;-75
2022/10/15 09:33:35;;;;;;;0.00;0.00;;;15.30;99.90;;;;;;5014552;28;20454;-75
2022/10/15 09:36:21;;;;;;;0.00;0.00;;;15.40;99.90;;;;;;5014603;28;20464;-75
2022/10/15 09:39:01;;;;;;;0.00;0.00;;;15.50;99.90;;;;;;5017435;28;20484;-75
2022/10/15 09:41:43;;;;;;;0.00;0.00;;;15.70;99.90;;;;;;5018231;28;20462;-75
2022/10/15 09:44:13;;;;;;;0.00;0.00;;;15.70;99.90;;;;;;5015084;28;20501;-75
2022/10/15 09:46:45;;;;;;;0.00;0.00;;;15.60;99.90;;;;;;5013707;28;20536;-76
2022/10/15 09:49:20;;;;;;;0.00;0.00;;;15.60;99.90;;;;;;5012993;28;20478;-75
2022/10/15 09:51:57;;;;;;;0.00;0.00;;;15.60;99.90;;;;;;5013187;28;20969;-75
2022/10/15 09:54:33;;;;;;;0.00;0.00;;;15.60;99.90;;;;;;5013559;28;20511;-76
2022/10/15 09:57:01;;;;;;;0.00;0.00;;;15.70;99.90;;;;;;5013206;28;20430;-76
2022/10/15 09:59:30;;;;;;;0.00;0.00;;;15.70;99.90;;;;;;5013662;28;20447;-75
2022/10/15 10:02:17;;;;;;;0.00;0.00;;;15.70;99.90;;;;;;5013529;28;20811;-76
2022/10/15 10:04:46;;;;;;;0.00;0.00;;;15.80;99.90;;;;;;5014004;28;20457;-75
2022/10/15 10:07:32;;;;;;;0.00;0.00;;;15.90;99.90;;;;;;5012859;28;20442;-75
2022/10/15 10:10:04;;;;;;;0.00;0.00;;;15.90;99.90;;;;;;5014897;28;20915;-75
2022/10/15 10:12:35;;;;;;;0.00;0.00;;;15.90;99.90;;;;;;5017777;28;20443;-75
2022/10/15 10:15:08;;;;;;;0.00;0.00;;;15.90;99.90;;;;;;5017324;28;20438;-74
2022/10/15 10:17:36;;;;;;;0.00;0.00;;;15.90;99.90;;;;;;5017479;28;20856;-75
2022/10/15 10:20:15;;;;;;;0.00;0.00;;;15.90;99.90;;;;;;5017126;28;20856;-75
2022/10/15 10:22:45;;;;;;;0.00;0.00;;;16.00;99.90;;;;;;5017122;28;20449;-75
2022/10/15 10:25:30;;;;;;;0.00;0.00;;;16.10;99.90;;;;;;5017206;28;20529;-75
2022/10/15 10:28:04;;;;;;;0.00;0.00;;;16.10;99.90;;;;;;5017126;28;20439;-75
2022/10/15 10:30:36;;;;;;;0.00;0.00;;;16.20;99.90;;;;;;5017040;28;20493;-75
2022/10/15 10:33:05;;;;;;;0.00;0.00;;;16.30;99.90;;;;;;5017132;28;20876;-75
2022/10/15 10:35:45;;;;;;;0.00;0.00;;;16.20;99.90;;;;;;5017287;28;20436;-75
2022/10/15 10:38:21;;;;;;;0.00;0.00;;;16.20;99.90;;;;;;5016801;28;20451;-75
2022/10/15 10:40:54;;;;;;;0.00;0.00;;;16.30;99.90;;;;;;5016852;28;20471;-76
2022/10/15 10:43:25;;;;;;;0.00;0.00;;;16.30;99.90;;;;;;5016723;28;20450;-75
2022/10/15 10:45:57;;;;;;;0.00;0.00;;;16.40;99.90;;;;;;5016909;28;20443;-75
2022/10/15 10:48:28;;;;;;;0.00;0.00;;;16.40;99.90;;;;;;5016998;28;20521;-75
2022/10/15 10:51:07;;;;;;;0.00;0.00;;;16.50;99.90;;;;;;5017431;28;20447;-75
2022/10/15 10:53:51;;;;;;;0.00;0.00;;;16.50;99.90;;;;;;5016722;28;20481;-75
2022/10/15 10:56:23;;;;;;;0.00;0.00;;;16.50;99.90;;;;;;5016856;28;20438;-75
2022/10/15 10:58:57;;;;;;;0.00;0.00;;;16.60;99.90;;;;;;5016499;28;20938;-75
2022/10/15 11:01:25;;;;;;;0.00;0.00;;;16.60;99.90;;;;;;5016911;28;20472;-75
2022/10/15 11:03:53;;;;;;;0.00;0.00;;;16.60;99.90;;;;;;5016000;28;20513;-74
2022/10/15 11:06:39;;;;;;;0.00;0.00;;;16.60;99.90;;;;;;5015265;28;20558;-74
2022/10/15 11:09:19;;;;;;;0.00;0.00;;;16.60;99.90;;;;;;5016345;28;20479;-74
2022/10/15 11:11:56;;;;;;;0.00;0.00;;;16.70;99.90;;;;;;5015894;28;20525;-76
2022/10/15 11:14:34;;;;;;;0.00;0.00;;;16.90;99.90;;;;;;5016324;28;20544;-74
2022/10/15 11:17:12;;;;;;;0.00;0.00;;;17.20;99.90;;;;;;5015646;28;20451;-74
2022/10/15 11:19:45;;;;;;;0.00;0.00;;;17.30;99.90;;;;;;5015402;28;20453;-74
2022/10/15 11:22:46;;;;;;;0.00;0.00;;;17.50;99.90;;;;;;5014383;28;20503;-74
2022/10/15 11:25:28;;;;;;;0.00;0.00;;;17.70;99.90;;;;;;5015380;28;20507;-74
2022/10/15 11:28:06;;;;;;;0.00;0.00;;;18.00;99.90;;;;;;5015791;28;20807;-75
2022/10/15 11:30:43;;;;;;;0.00;0.00;;;18.00;99.90;;;;;;5015281;28;20558;-75
2022/10/15 11:33:23;;;;;;;0.00;0.00;;;18.10;99.90;;;;;;5015182;28;20495;-75
2022/10/15 11:35:57;;;;;;;0.00;0.00;;;18.10;99.90;;;;;;5015558;28;20434;-75
2022/10/15 11:38:37;;;;;;;0.00;0.00;;;18.10;99.90;;;;;;5015348;28;20430;-74
2022/10/15 11:41:20;;;;;;;0.00;0.00;;;18.20;99.90;;;;;;5015421;28;20488;-74
2022/10/15 11:44:03;;;;;;;0.00;0.00;;;18.20;99.90;;;;;;5015659;28;20445;-74
2022/10/15 11:46:37;;;;;;;0.00;0.00;;;18.40;99.90;;;;;;5015497;28;20824;-75
2022/10/15 11:49:24;;;;;;;0.00;0.00;;;18.50;99.90;;;;;;5015752;28;20450;-75
2022/10/15 11:52:12;;;;;;;0.00;0.00;;;18.60;99.90;;;;;;5016443;28;20865;-75
2022/10/15 11:54:46;;;;;;;0.00;0.00;;;18.50;99.90;;;;;;5015583;28;20458;-74
2022/10/15 11:57:18;;;;;;;0.00;0.00;;;18.40;99.90;;;;;;5015425;28;20430;-75
2022/10/15 11:59:51;;;;;;;0.00;0.00;;;18.30;99.90;;;;;;5015271;28;20438;-75
2022/10/15 12:02:23;;;;;;;0.00;0.00;;;18.20;99.90;;;;;;5014997;28;20442;-75
2022/10/15 12:04:54;;;;;;;0.00;0.00;;;18.10;99.90;;;;;;5015508;28;20422;-74
2022/10/15 12:07:25;;;;;;;0.00;0.00;;;17.90;99.90;;;;;;5015068;28;20500;-75
2022/10/15 12:10:00;;;;;;;0.00;0.00;;;17.80;99.90;;;;;;5015186;28;20489;-74
2022/10/15 12:12:37;;;;;;;0.00;0.00;;;17.90;99.90;;;;;;5015006;28;20442;-74
2022/10/15 12:15:16;;;;;;;0.00;0.00;;;17.90;99.90;;;;;;5014813;28;20447;-75
2022/10/15 12:17:50;;;;;;;0.00;0.00;;;18.00;99.90;;;;;;5014853;28;20500;-75
2022/10/15 12:20:21;;;;;;;0.00;0.00;;;18.10;99.90;;;;;;5014469;28;20489;-74
2022/10/15 12:22:58;;;;;;;0.00;0.00;;;18.10;99.90;;;;;;5014823;28;20437;-75
2022/10/15 12:25:44;;;;;;;0.00;0.00;;;18.10;99.90;;;;;;5014049;28;20859;-75
2022/10/15 12:28:18;;;;;;;0.00;0.00;;;18.00;99.90;;;;;;5014600;28;20456;-75
2022/10/15 12:31:00;;;;;;;0.00;0.00;;;18.00;99.90;;;;;;5014257;28;20491;-75
2022/10/15 12:33:36;;;;;;;0.00;0.00;;;18.00;99.90;;;;;;5014557;28;20440;-75
2022/10/15 12:36:09;;;;;;;0.00;0.00;;;17.80;99.90;;;;;;5014137;28;20796;-75
2022/10/15 12:38:39;;;;;;;0.00;0.00;;;17.70;99.90;;;;;;5014373;28;20439;-73
2022/10/15 12:41:10;;;;;;;0.00;0.00;;;17.60;99.90;;;;;;5014150;28;20466;-76
2022/10/15 12:43:42;;;;;;;0.00;0.00;;;17.60;99.90;;;;;;5014608;28;20541;-75
2022/10/15 12:46:13;;;;;;;0.00;0.00;;;17.60;99.90;;;;;;5014714;28;20453;-74
2022/10/15 12:48:43;;;;;;;0.00;0.00;;;17.60;99.90;;;;;;5013881;28;20941;-74
2022/10/15 12:51:38;;;;;;;0.00;0.00;;;17.80;99.90;;;;;;5014020;28;20477;-74
2022/10/15 12:54:35;;;;;;;0.00;0.00;;;17.80;99.90;;;;;;5014128;28;20448;-74
2022/10/15 12:57:43;;;;;;;0.00;0.00;;;17.70;99.90;;;;;;5014312;28;20499;-74
2022/10/15 13:00:30;;;;;;;0.00;0.00;;;17.70;99.90;;;;;;5014583;28;20498;-75
2022/10/15 13:03:09;;;;;;;0.00;0.00;;;17.80;99.90;;;;;;5014375;28;20568;-74
2022/10/15 13:05:37;;;;;;;0.00;0.00;;;17.80;99.90;;;;;;5014058;28;20484;-74
2022/10/15 13:08:14;;;;;;;0.00;0.00;;;17.90;99.90;;;;;;5014022;28;20441;-74
2022/10/15 13:10:48;;;;;;;0.00;0.00;;;17.90;99.90;;;;;;5014782;28;20493;-74
2022/10/15 13:13:22;;;;;;;0.00;0.00;;;17.90;99.90;;;;;;5015678;28;20429;-75
2022/10/15 13:15:59;;;;;;;0.00;0.00;;;18.00;99.90;;;;;;5014663;28;20517;-74
2022/10/15 13:18:29;;;;;;;0.00;0.00;;;18.20;99.90;;;;;;5014701;28;20449;-74
2022/10/15 13:20:57;;;;;;;0.00;0.00;;;18.30;99.90;;;;;;5014820;28;20466;-75
2022/10/15 13:23:27;;;;;;;0.00;0.00;;;18.40;99.90;;;;;;5015184;28;20482;-75
2022/10/15 13:26:12;;;;;;;0.00;0.00;;;18.50;99.90;;;;;;5014735;28;20488;-75
2022/10/15 13:28:43;;;;;;;0.00;0.00;;;18.50;99.90;;;;;;5015565;28;20448;-76
2022/10/15 13:31:24;;;;;;;0.00;0.00;;;18.60;99.90;;;;;;5015618;28;20484;-76
2022/10/15 13:34:00;;;;;;;0.00;0.00;;;18.60;99.90;;;;;;5015434;28;20489;-75
2022/10/15 13:36:31;;;;;;;0.00;0.00;;;18.60;99.90;;;;;;5014076;28;20434;-75
2022/10/15 13:39:01;;;;;;;0.00;0.00;;;18.70;99.90;;;;;;5014062;28;20857;-76
2022/10/15 13:41:31;;;;;;;0.00;0.00;;;18.70;99.90;;;;;;5013313;28;20970;-76
2022/10/15 13:44:01;;;;;;;0.00;0.00;;;18.80;99.90;;;;;;5013030;28;20500;-76
2022/10/15 13:46:32;;;;;;;0.00;0.00;;;18.70;99.90;;;;;;5013151;28;20445;-76
2022/10/15 13:49:02;;;;;;;0.00;0.00;;;18.80;99.90;;;;;;5012894;28;20442;-76
2022/10/15 13:51:34;;;;;;;0.00;0.00;;;18.80;99.90;;;;;;5013266;28;20544;-77
2022/10/15 13:54:07;;;;;;;0.00;0.00;;;18.80;99.90;;;;;;5014746;28;20431;-76
2022/10/15 13:56:35;;;;;;;0.00;0.00;;;18.80;99.90;;;;;;5013378;28;20454;-76
2022/10/15 13:59:05;;;;;;;0.00;0.00;;;18.80;99.90;;;;;;5012666;28;20869;-75
2022/10/15 14:01:35;;;;;;;0.00;0.00;;;18.80;99.90;;;;;;5021968;28;20546;-75
2022/10/15 14:04:03;;;;;;;0.00;0.00;;;18.90;99.90;;;;;;5019612;28;20504;-75
2022/10/15 14:06:33;;;;;;;0.00;0.00;;;18.90;99.90;;;;;;5013194;28;20458;-76